sensor_id;sensor_type;location;lat;lon;timestamp;P1;durP1;ratioP1;P2;durP2;ratioP2
39434;SDS011;30098;51.880;-0.518;2022-12-18T00:01:47;4.82;;;3.30;;
39434;SDS011;30098;51.880;-0.518;2022-12-18T00:04:19;4.10;;;3.47;;
39434;SDS011;30098;51.880;-0.518;2022-12-18T00:06:47;4.82;;;3.95;;
39434;SDS011;30098;51.880;-0.518;2022-12-18T00:09:12;4.43;;;3.60;;
39434;SDS011;30098;51.880;-0.518;2022-12-18T00:11:38;3.83;;;3.40;;
39434;SDS011;30098;51.880;-0.518;2022-12-18T00:14:03;4.68;;;3.58;;
39434;SDS011;30098;51.880;-0.518;2022-12-18T00:16:29;3.92;;;3.50;;
39434;SDS011;30098;51.880;-0.518;2022-12-18T00:18:58;4.15;;;3.75;;
39434;SDS011;30098;51.880;-0.518;2022-12-18T00:21:24;4.10;;;3.50;;
39434;SDS011;30098;51.880;-0.518;2022-12-18T00:23:50;4.55;;;3.42;;
39434;SDS011;30098;51.880;-0.518;2022-12-18T00:26:20;4.25;;;3.40;;
39434;SDS011;30098;51.880;-0.518;2022-12-18T00:28:48;3.67;;;3.25;;
39434;SDS011;30098;51.880;-0.518;2022-12-18T00:31:15;3.88;;;3.15;;
39434;SDS011;30098;51.880;-0.518;2022-12-18T00:33:43;3.90;;;3.50;;
39434;SDS011;30098;51.880;-0.518;2022-12-18T00:36:16;4.28;;;3.70;;
39434;SDS011;30098;51.880;-0.518;2022-12-18T00:38:44;4.47;;;3.90;;
39434;SDS011;30098;51.880;-0.518;2022-12-18T00:41:12;4.05;;;3.65;;
39434;SDS011;30098;51.880;-0.518;2022-12-18T00:43:38;3.97;;;3.40;;
39434;SDS011;30098;51.880;-0.518;2022-12-18T00:46:05;5.13;;;4.22;;
39434;SDS011;30098;51.880;-0.518;2022-12-18T00:48:30;4.78;;;3.83;;
39434;SDS011;30098;51.880;-0.518;2022-12-18T00:50:56;4.40;;;3.83;;
39434;SDS011;30098;51.880;-0.518;2022-12-18T00:53:22;5.15;;;3.83;;
39434;SDS011;30098;51.880;-0.518;2022-12-18T00:55:47;4.50;;;3.90;;
39434;SDS011;30098;51.880;-0.518;2022-12-18T00:58:14;4.30;;;3.47;;
39434;SDS011;30098;51.880;-0.518;2022-12-18T01:00:41;4.32;;;3.28;;
39434;SDS011;30098;51.880;-0.518;2022-12-18T01:03:06;4.50;;;3.70;;
39434;SDS011;30098;51.880;-0.518;2022-12-18T01:05:32;4.45;;;3.65;;
39434;SDS011;30098;51.880;-0.518;2022-12-18T01:07:58;4.05;;;3.55;;
39434;SDS011;30098;51.880;-0.518;2022-12-18T01:10:24;5.03;;;3.33;;
39434;SDS011;30098;51.880;-0.518;2022-12-18T01:12:50;4.07;;;3.50;;
39434;SDS011;30098;51.880;-0.518;2022-12-18T01:15:16;4.88;;;3.72;;
39434;SDS011;30098;51.880;-0.518;2022-12-18T01:17:42;5.40;;;3.97;;
39434;SDS011;30098;51.880;-0.518;2022-12-18T01:20:08;4.82;;;3.83;;
39434;SDS011;30098;51.880;-0.518;2022-12-18T01:22:35;5.18;;;3.92;;
39434;SDS011;30098;51.880;-0.518;2022-12-18T01:25:01;5.05;;;4.03;;
39434;SDS011;30098;51.880;-0.518;2022-12-18T01:27:27;4.43;;;4.03;;
39434;SDS011;30098;51.880;-0.518;2022-12-18T01:29:52;4.38;;;3.97;;
39434;SDS011;30098;51.880;-0.518;2022-12-18T01:32:18;4.55;;;3.95;;
39434;SDS011;30098;51.880;-0.518;2022-12-18T01:34:44;5.38;;;4.07;;
39434;SDS011;30098;51.880;-0.518;2022-12-18T01:37:10;4.72;;;4.20;;
39434;SDS011;30098;51.880;-0.518;2022-12-18T01:39:35;5.65;;;4.10;;
39434;SDS011;30098;51.880;-0.518;2022-12-18T01:42:09;5.07;;;4.30;;
39434;SDS011;30098;51.880;-0.518;2022-12-18T01:50:20;4.75;;;4.03;;
39434;SDS011;30098;51.880;-0.518;2022-12-18T01:52:50;5.63;;;4.50;;
39434;SDS011;30098;51.880;-0.518;2022-12-18T01:55:17;5.90;;;4.82;;
39434;SDS011;30098;51.880;-0.518;2022-12-18T01:57:44;4.90;;;4.40;;
39434;SDS011;30098;51.880;-0.518;2022-12-18T02:00:12;6.18;;;4.85;;
39434;SDS011;30098;51.880;-0.518;2022-12-18T02:02:41;5.32;;;4.55;;
39434;SDS011;30098;51.880;-0.518;2022-12-18T02:05:08;5.97;;;4.82;;
39434;SDS011;30098;51.880;-0.518;2022-12-18T02:10:09;6.03;;;5.05;;
39434;SDS011;30098;51.880;-0.518;2022-12-18T02:12:56;5.40;;;4.80;;
39434;SDS011;30098;51.880;-0.518;2022-12-18T02:15:49;5.63;;;4.93;;
39434;SDS011;30098;51.880;-0.518;2022-12-18T02:18:24;6.28;;;5.18;;
39434;SDS011;30098;51.880;-0.518;2022-12-18T02:23:54;7.53;;;5.38;;
39434;SDS011;30098;51.880;-0.518;2022-12-18T02:26:45;5.55;;;4.88;;
39434;SDS011;30098;51.880;-0.518;2022-12-18T02:29:31;6.70;;;5.50;;
39434;SDS011;30098;51.880;-0.518;2022-12-18T02:32:01;6.00;;;5.38;;
39434;SDS011;30098;51.880;-0.518;2022-12-18T02:34:31;5.90;;;5.30;;
39434;SDS011;30098;51.880;-0.518;2022-12-18T02:37:02;7.68;;;5.97;;
39434;SDS011;30098;51.880;-0.518;2022-12-18T02:39:32;6.32;;;5.47;;
39434;SDS011;30098;51.880;-0.518;2022-12-18T02:41:59;6.13;;;5.22;;
39434;SDS011;30098;51.880;-0.518;2022-12-18T02:44:27;5.90;;;5.13;;
39434;SDS011;30098;51.880;-0.518;2022-12-18T02:46:53;6.70;;;5.25;;
39434;SDS011;30098;51.880;-0.518;2022-12-18T03:00:02;6.90;;;5.55;;
39434;SDS011;30098;51.880;-0.518;2022-12-18T03:08:39;7.10;;;5.85;;
39434;SDS011;30098;51.880;-0.518;2022-12-18T03:11:07;7.32;;;6.22;;
39434;SDS011;30098;51.880;-0.518;2022-12-18T03:13:39;7.93;;;6.03;;
39434;SDS011;30098;51.880;-0.518;2022-12-18T03:16:19;6.97;;;5.93;;
39434;SDS011;30098;51.880;-0.518;2022-12-18T03:18:51;7.20;;;6.18;;
39434;SDS011;30098;51.880;-0.518;2022-12-18T03:21:23;7.70;;;6.40;;
39434;SDS011;30098;51.880;-0.518;2022-12-18T03:23:53;7.57;;;6.13;;
39434;SDS011;30098;51.880;-0.518;2022-12-18T03:26:21;6.47;;;5.80;;
39434;SDS011;30098;51.880;-0.518;2022-12-18T03:28:51;7.20;;;6.50;;
39434;SDS011;30098;51.880;-0.518;2022-12-18T03:31:22;7.22;;;6.45;;
39434;SDS011;30098;51.880;-0.518;2022-12-18T03:33:53;6.57;;;5.93;;
39434;SDS011;30098;51.880;-0.518;2022-12-18T03:36:20;7.05;;;6.35;;
39434;SDS011;30098;51.880;-0.518;2022-12-18T03:38:46;6.80;;;6.10;;
39434;SDS011;30098;51.880;-0.518;2022-12-18T03:41:25;7.53;;;6.72;;
39434;SDS011;30098;51.880;-0.518;2022-12-18T03:46:29;8.00;;;6.63;;
39434;SDS011;30098;51.880;-0.518;2022-12-18T03:49:04;7.68;;;6.88;;
39434;SDS011;30098;51.880;-0.518;2022-12-18T03:51:37;6.90;;;6.18;;
39434;SDS011;30098;51.880;-0.518;2022-12-18T03:54:12;6.72;;;6.03;;
39434;SDS011;30098;51.880;-0.518;2022-12-18T03:56:42;7.10;;;6.40;;
39434;SDS011;30098;51.880;-0.518;2022-12-18T03:59:12;7.18;;;6.47;;
39434;SDS011;30098;51.880;-0.518;2022-12-18T04:01:45;8.02;;;6.70;;
39434;SDS011;30098;51.880;-0.518;2022-12-18T04:04:13;7.65;;;6.85;;
39434;SDS011;30098;51.880;-0.518;2022-12-18T04:06:41;8.20;;;7.38;;
39434;SDS011;30098;51.880;-0.518;2022-12-18T04:09:08;7.53;;;6.57;;
39434;SDS011;30098;51.880;-0.518;2022-12-18T04:11:34;7.28;;;6.43;;
39434;SDS011;30098;51.880;-0.518;2022-12-18T04:14:00;7.50;;;6.70;;
39434;SDS011;30098;51.880;-0.518;2022-12-18T04:16:26;7.72;;;6.47;;
39434;SDS011;30098;51.880;-0.518;2022-12-18T04:18:52;7.65;;;6.85;;
39434;SDS011;30098;51.880;-0.518;2022-12-18T04:21:18;7.68;;;6.45;;
39434;SDS011;30098;51.880;-0.518;2022-12-18T04:23:44;7.50;;;6.68;;
39434;SDS011;30098;51.880;-0.518;2022-12-18T04:26:09;7.60;;;6.60;;
39434;SDS011;30098;51.880;-0.518;2022-12-18T04:28:35;7.20;;;6.43;;
39434;SDS011;30098;51.880;-0.518;2022-12-18T04:31:01;9.25;;;7.05;;
39434;SDS011;30098;51.880;-0.518;2022-12-18T04:33:26;7.18;;;6.47;;
39434;SDS011;30098;51.880;-0.518;2022-12-18T04:35:52;7.45;;;6.63;;
39434;SDS011;30098;51.880;-0.518;2022-12-18T04:38:17;7.90;;;6.88;;
39434;SDS011;30098;51.880;-0.518;2022-12-18T04:40:42;7.60;;;6.78;;
39434;SDS011;30098;51.880;-0.518;2022-12-18T04:43:08;7.78;;;6.90;;
39434;SDS011;30098;51.880;-0.518;2022-12-18T04:45:33;7.50;;;6.70;;
39434;SDS011;30098;51.880;-0.518;2022-12-18T04:47:59;7.07;;;6.38;;
39434;SDS011;30098;51.880;-0.518;2022-12-18T04:50:25;7.57;;;6.78;;
39434;SDS011;30098;51.880;-0.518;2022-12-18T04:52:51;7.53;;;6.72;;
39434;SDS011;30098;51.880;-0.518;2022-12-18T04:55:16;7.40;;;6.68;;
39434;SDS011;30098;51.880;-0.518;2022-12-18T04:57:42;7.28;;;6.57;;
39434;SDS011;30098;51.880;-0.518;2022-12-18T05:00:07;7.45;;;6.70;;
39434;SDS011;30098;51.880;-0.518;2022-12-18T05:02:33;7.13;;;6.43;;
39434;SDS011;30098;51.880;-0.518;2022-12-18T05:04:59;7.78;;;7.00;;
39434;SDS011;30098;51.880;-0.518;2022-12-18T05:07:24;7.43;;;6.68;;
39434;SDS011;30098;51.880;-0.518;2022-12-18T05:09:49;7.25;;;6.55;;
39434;SDS011;30098;51.880;-0.518;2022-12-18T05:12:15;7.20;;;6.50;;
39434;SDS011;30098;51.880;-0.518;2022-12-18T05:14:40;7.28;;;6.57;;
39434;SDS011;30098;51.880;-0.518;2022-12-18T05:17:06;7.40;;;6.68;;
39434;SDS011;30098;51.880;-0.518;2022-12-18T05:19:32;7.53;;;6.78;;
39434;SDS011;30098;51.880;-0.518;2022-12-18T05:21:57;7.70;;;6.90;;
39434;SDS011;30098;51.880;-0.518;2022-12-18T05:24:23;7.57;;;6.78;;
39434;SDS011;30098;51.880;-0.518;2022-12-18T05:26:48;7.00;;;6.30;;
39434;SDS011;30098;51.880;-0.518;2022-12-18T05:29:14;7.47;;;6.68;;
39434;SDS011;30098;51.880;-0.518;2022-12-18T05:31:39;7.43;;;6.65;;
39434;SDS011;30098;51.880;-0.518;2022-12-18T05:34:05;7.90;;;6.53;;
39434;SDS011;30098;51.880;-0.518;2022-12-18T05:36:31;7.25;;;6.35;;
39434;SDS011;30098;51.880;-0.518;2022-12-18T05:38:57;7.85;;;6.85;;
39434;SDS011;30098;51.880;-0.518;2022-12-18T05:41:22;7.13;;;6.43;;
39434;SDS011;30098;51.880;-0.518;2022-12-18T05:43:47;7.22;;;6.47;;
39434;SDS011;30098;51.880;-0.518;2022-12-18T05:46:14;7.30;;;6.60;;
39434;SDS011;30098;51.880;-0.518;2022-12-18T05:48:42;7.47;;;6.60;;
39434;SDS011;30098;51.880;-0.518;2022-12-18T05:51:10;7.35;;;6.55;;
39434;SDS011;30098;51.880;-0.518;2022-12-18T05:53:37;7.05;;;6.35;;
39434;SDS011;30098;51.880;-0.518;2022-12-18T05:56:04;7.40;;;6.70;;
39434;SDS011;30098;51.880;-0.518;2022-12-18T05:58:32;7.60;;;6.80;;
39434;SDS011;30098;51.880;-0.518;2022-12-18T06:01:05;6.60;;;5.97;;
39434;SDS011;30098;51.880;-0.518;2022-12-18T06:03:33;7.38;;;6.57;;
39434;SDS011;30098;51.880;-0.518;2022-12-18T06:05:59;7.10;;;6.40;;
39434;SDS011;30098;51.880;-0.518;2022-12-18T06:08:24;7.03;;;6.32;;
39434;SDS011;30098;51.880;-0.518;2022-12-18T06:10:50;7.40;;;6.57;;
39434;SDS011;30098;51.880;-0.518;2022-12-18T06:13:18;7.38;;;6.43;;
39434;SDS011;30098;51.880;-0.518;2022-12-18T06:15:44;7.22;;;6.43;;
39434;SDS011;30098;51.880;-0.518;2022-12-18T06:18:09;7.47;;;6.70;;
39434;SDS011;30098;51.880;-0.518;2022-12-18T06:20:35;7.13;;;6.43;;
39434;SDS011;30098;51.880;-0.518;2022-12-18T06:23:02;6.95;;;6.25;;
39434;SDS011;30098;51.880;-0.518;2022-12-18T06:25:28;6.97;;;6.18;;
39434;SDS011;30098;51.880;-0.518;2022-12-18T06:27:53;7.38;;;6.00;;
39434;SDS011;30098;51.880;-0.518;2022-12-18T06:30:19;7.03;;;6.32;;
39434;SDS011;30098;51.880;-0.518;2022-12-18T06:32:45;7.10;;;6.22;;
39434;SDS011;30098;51.880;-0.518;2022-12-18T06:35:10;7.05;;;6.30;;
39434;SDS011;30098;51.880;-0.518;2022-12-18T06:37:35;7.22;;;6.53;;
39434;SDS011;30098;51.880;-0.518;2022-12-18T06:40:01;7.03;;;6.22;;
39434;SDS011;30098;51.880;-0.518;2022-12-18T06:42:28;7.75;;;6.85;;
39434;SDS011;30098;51.880;-0.518;2022-12-18T06:44:53;7.35;;;6.43;;
39434;SDS011;30098;51.880;-0.518;2022-12-18T06:47:19;7.25;;;6.55;;
39434;SDS011;30098;51.880;-0.518;2022-12-18T06:49:44;7.10;;;6.18;;
39434;SDS011;30098;51.880;-0.518;2022-12-18T06:52:10;6.88;;;6.15;;
39434;SDS011;30098;51.880;-0.518;2022-12-18T06:54:35;6.72;;;6.03;;
39434;SDS011;30098;51.880;-0.518;2022-12-18T06:57:01;7.45;;;6.65;;
39434;SDS011;30098;51.880;-0.518;2022-12-18T06:59:26;6.53;;;5.93;;
39434;SDS011;30098;51.880;-0.518;2022-12-18T07:01:52;6.80;;;6.10;;
39434;SDS011;30098;51.880;-0.518;2022-12-18T07:04:17;6.70;;;6.10;;
39434;SDS011;30098;51.880;-0.518;2022-12-18T07:06:42;7.25;;;6.13;;
39434;SDS011;30098;51.880;-0.518;2022-12-18T07:09:08;6.60;;;5.90;;
39434;SDS011;30098;51.880;-0.518;2022-12-18T07:11:33;7.10;;;6.18;;
39434;SDS011;30098;51.880;-0.518;2022-12-18T07:13:59;6.65;;;5.95;;
39434;SDS011;30098;51.880;-0.518;2022-12-18T07:16:25;7.22;;;6.53;;
39434;SDS011;30098;51.880;-0.518;2022-12-18T07:18:50;7.20;;;6.50;;
39434;SDS011;30098;51.880;-0.518;2022-12-18T07:21:17;6.82;;;6.13;;
39434;SDS011;30098;51.880;-0.518;2022-12-18T07:23:43;6.78;;;6.07;;
39434;SDS011;30098;51.880;-0.518;2022-12-18T07:26:12;7.43;;;6.43;;
39434;SDS011;30098;51.880;-0.518;2022-12-18T07:28:39;7.03;;;6.22;;
39434;SDS011;30098;51.880;-0.518;2022-12-18T07:31:06;6.80;;;6.10;;
39434;SDS011;30098;51.880;-0.518;2022-12-18T07:33:33;7.05;;;6.32;;
39434;SDS011;30098;51.880;-0.518;2022-12-18T07:35:59;6.75;;;6.07;;
39434;SDS011;30098;51.880;-0.518;2022-12-18T07:38:26;7.47;;;6.30;;
39434;SDS011;30098;51.880;-0.518;2022-12-18T07:40:51;7.45;;;6.30;;
39434;SDS011;30098;51.880;-0.518;2022-12-18T07:43:16;6.78;;;6.00;;
39434;SDS011;30098;51.880;-0.518;2022-12-18T07:45:42;6.85;;;6.15;;
39434;SDS011;30098;51.880;-0.518;2022-12-18T07:48:08;7.05;;;6.20;;
39434;SDS011;30098;51.880;-0.518;2022-12-18T07:50:33;7.25;;;6.38;;
39434;SDS011;30098;51.880;-0.518;2022-12-18T07:52:59;6.38;;;5.72;;
39434;SDS011;30098;51.880;-0.518;2022-12-18T07:55:29;6.78;;;5.97;;
39434;SDS011;30098;51.880;-0.518;2022-12-18T07:57:55;6.32;;;5.53;;
39434;SDS011;30098;51.880;-0.518;2022-12-18T08:00:20;6.93;;;6.22;;
39434;SDS011;30098;51.880;-0.518;2022-12-18T08:02:46;6.80;;;5.70;;
39434;SDS011;30098;51.880;-0.518;2022-12-18T08:05:11;6.85;;;6.07;;
39434;SDS011;30098;51.880;-0.518;2022-12-18T08:07:37;6.57;;;5.57;;
39434;SDS011;30098;51.880;-0.518;2022-12-18T08:10:02;6.57;;;5.93;;
39434;SDS011;30098;51.880;-0.518;2022-12-18T08:12:28;6.22;;;5.55;;
39434;SDS011;30098;51.880;-0.518;2022-12-18T08:14:53;6.80;;;6.00;;
39434;SDS011;30098;51.880;-0.518;2022-12-18T08:17:19;6.63;;;5.95;;
39434;SDS011;30098;51.880;-0.518;2022-12-18T08:19:45;6.80;;;5.45;;
39434;SDS011;30098;51.880;-0.518;2022-12-18T08:22:10;6.30;;;5.70;;
39434;SDS011;30098;51.880;-0.518;2022-12-18T08:24:36;6.40;;;5.78;;
39434;SDS011;30098;51.880;-0.518;2022-12-18T08:27:01;5.82;;;5.25;;
39434;SDS011;30098;51.880;-0.518;2022-12-18T08:29:26;6.75;;;5.88;;
39434;SDS011;30098;51.880;-0.518;2022-12-18T08:31:52;5.95;;;5.28;;
39434;SDS011;30098;51.880;-0.518;2022-12-18T08:34:17;6.13;;;5.25;;
39434;SDS011;30098;51.880;-0.518;2022-12-18T08:36:43;7.03;;;6.00;;
39434;SDS011;30098;51.880;-0.518;2022-12-18T08:39:08;6.57;;;5.70;;
39434;SDS011;30098;51.880;-0.518;2022-12-18T08:41:34;6.53;;;5.72;;
39434;SDS011;30098;51.880;-0.518;2022-12-18T08:43:59;6.10;;;5.43;;
39434;SDS011;30098;51.880;-0.518;2022-12-18T08:46:43;5.90;;;5.07;;
39434;SDS011;30098;51.880;-0.518;2022-12-18T08:49:09;6.13;;;5.45;;
39434;SDS011;30098;51.880;-0.518;2022-12-18T08:51:36;6.00;;;5.38;;
39434;SDS011;30098;51.880;-0.518;2022-12-18T08:54:02;5.72;;;5.10;;
39434;SDS011;30098;51.880;-0.518;2022-12-18T08:56:29;6.03;;;5.43;;
39434;SDS011;30098;51.880;-0.518;2022-12-18T08:58:55;6.25;;;5.53;;
39434;SDS011;30098;51.880;-0.518;2022-12-18T09:01:21;5.55;;;5.00;;
39434;SDS011;30098;51.880;-0.518;2022-12-18T09:03:50;6.05;;;5.32;;
39434;SDS011;30098;51.880;-0.518;2022-12-18T09:06:17;6.53;;;5.45;;
39434;SDS011;30098;51.880;-0.518;2022-12-18T09:08:43;5.90;;;5.30;;
39434;SDS011;30098;51.880;-0.518;2022-12-18T09:11:15;5.90;;;5.30;;
39434;SDS011;30098;51.880;-0.518;2022-12-18T09:13:45;5.63;;;4.97;;
39434;SDS011;30098;51.880;-0.518;2022-12-18T09:16:11;6.10;;;5.50;;
39434;SDS011;30098;51.880;-0.518;2022-12-18T09:18:36;6.45;;;5.63;;
39434;SDS011;30098;51.880;-0.518;2022-12-18T09:21:08;6.05;;;5.40;;
39434;SDS011;30098;51.880;-0.518;2022-12-18T09:23:39;6.20;;;5.57;;
39434;SDS011;30098;51.880;-0.518;2022-12-18T09:26:04;6.88;;;5.93;;
39434;SDS011;30098;51.880;-0.518;2022-12-18T09:28:30;6.88;;;5.60;;
39434;SDS011;30098;51.880;-0.518;2022-12-18T09:30:56;6.07;;;5.47;;
39434;SDS011;30098;51.880;-0.518;2022-12-18T09:33:21;5.68;;;5.10;;
39434;SDS011;30098;51.880;-0.518;2022-12-18T09:35:47;6.40;;;5.70;;
39434;SDS011;30098;51.880;-0.518;2022-12-18T09:38:13;5.60;;;4.90;;
39434;SDS011;30098;51.880;-0.518;2022-12-18T09:40:42;5.53;;;5.03;;
39434;SDS011;30098;51.880;-0.518;2022-12-18T09:43:14;6.18;;;5.30;;
39434;SDS011;30098;51.880;-0.518;2022-12-18T09:46:01;5.70;;;4.97;;
39434;SDS011;30098;51.880;-0.518;2022-12-18T09:48:40;5.80;;;5.20;;
39434;SDS011;30098;51.880;-0.518;2022-12-18T09:51:13;5.93;;;5.10;;
39434;SDS011;30098;51.880;-0.518;2022-12-18T09:53:44;5.88;;;5.10;;
39434;SDS011;30098;51.880;-0.518;2022-12-18T09:56:16;5.93;;;5.18;;
39434;SDS011;30098;51.880;-0.518;2022-12-18T09:58:48;6.18;;;5.53;;
39434;SDS011;30098;51.880;-0.518;2022-12-18T10:01:21;5.10;;;4.60;;
39434;SDS011;30098;51.880;-0.518;2022-12-18T10:03:48;6.03;;;4.97;;
39434;SDS011;30098;51.880;-0.518;2022-12-18T10:06:15;6.75;;;5.75;;
39434;SDS011;30098;51.880;-0.518;2022-12-18T10:08:49;6.20;;;5.45;;
39434;SDS011;30098;51.880;-0.518;2022-12-18T10:14:27;6.47;;;5.28;;
39434;SDS011;30098;51.880;-0.518;2022-12-18T10:20:00;5.75;;;5.13;;
39434;SDS011;30098;51.880;-0.518;2022-12-18T10:22:53;6.18;;;5.15;;
39434;SDS011;30098;51.880;-0.518;2022-12-18T10:25:22;6.72;;;5.18;;
39434;SDS011;30098;51.880;-0.518;2022-12-18T10:27:56;6.95;;;5.40;;
39434;SDS011;30098;51.880;-0.518;2022-12-18T10:30:25;6.45;;;5.45;;
39434;SDS011;30098;51.880;-0.518;2022-12-18T10:32:51;6.63;;;5.40;;
39434;SDS011;30098;51.880;-0.518;2022-12-18T10:35:25;6.15;;;5.47;;
39434;SDS011;30098;51.880;-0.518;2022-12-18T10:43:14;7.00;;;5.47;;
39434;SDS011;30098;51.880;-0.518;2022-12-18T10:45:41;6.13;;;5.53;;
39434;SDS011;30098;51.880;-0.518;2022-12-18T10:48:22;6.10;;;5.22;;
39434;SDS011;30098;51.880;-0.518;2022-12-18T10:50:49;5.85;;;5.25;;
39434;SDS011;30098;51.880;-0.518;2022-12-18T10:53:21;6.60;;;5.65;;
39434;SDS011;30098;51.880;-0.518;2022-12-18T10:55:48;7.05;;;6.13;;
39434;SDS011;30098;51.880;-0.518;2022-12-18T10:58:18;6.50;;;5.80;;
39434;SDS011;30098;51.880;-0.518;2022-12-18T11:00:45;6.15;;;5.40;;
39434;SDS011;30098;51.880;-0.518;2022-12-18T11:03:29;6.72;;;5.90;;
39434;SDS011;30098;51.880;-0.518;2022-12-18T11:08:37;6.50;;;5.45;;
39434;SDS011;30098;51.880;-0.518;2022-12-18T11:11:03;6.60;;;5.53;;
39434;SDS011;30098;51.880;-0.518;2022-12-18T11:13:39;6.68;;;4.93;;
39434;SDS011;30098;51.880;-0.518;2022-12-18T11:16:05;6.55;;;5.60;;
39434;SDS011;30098;51.880;-0.518;2022-12-18T11:18:34;8.15;;;5.90;;
39434;SDS011;30098;51.880;-0.518;2022-12-18T11:21:05;7.45;;;6.07;;
39434;SDS011;30098;51.880;-0.518;2022-12-18T11:23:33;6.45;;;5.70;;
39434;SDS011;30098;51.880;-0.518;2022-12-18T11:26:03;7.22;;;5.93;;
39434;SDS011;30098;51.880;-0.518;2022-12-18T11:31:14;6.47;;;5.70;;
39434;SDS011;30098;51.880;-0.518;2022-12-18T11:33:50;7.05;;;5.85;;
39434;SDS011;30098;51.880;-0.518;2022-12-18T11:36:22;6.72;;;5.93;;
39434;SDS011;30098;51.880;-0.518;2022-12-18T11:38:48;8.00;;;6.13;;
39434;SDS011;30098;51.880;-0.518;2022-12-18T11:44:24;8.00;;;5.90;;
39434;SDS011;30098;51.880;-0.518;2022-12-18T11:50:14;7.25;;;5.95;;
39434;SDS011;30098;51.880;-0.518;2022-12-18T11:52:43;7.90;;;6.40;;
39434;SDS011;30098;51.880;-0.518;2022-12-18T11:55:13;7.40;;;5.78;;
39434;SDS011;30098;51.880;-0.518;2022-12-18T11:57:51;7.75;;;6.30;;
39434;SDS011;30098;51.880;-0.518;2022-12-18T12:00:25;7.47;;;6.25;;
39434;SDS011;30098;51.880;-0.518;2022-12-18T12:16:13;7.75;;;6.38;;
39434;SDS011;30098;51.880;-0.518;2022-12-18T12:18:56;7.22;;;6.00;;
39434;SDS011;30098;51.880;-0.518;2022-12-18T12:27:39;7.20;;;6.25;;
39434;SDS011;30098;51.880;-0.518;2022-12-18T12:33:08;7.90;;;6.43;;
39434;SDS011;30098;51.880;-0.518;2022-12-18T12:35:51;8.73;;;6.10;;
39434;SDS011;30098;51.880;-0.518;2022-12-18T12:38:51;7.68;;;6.10;;
39434;SDS011;30098;51.880;-0.518;2022-12-18T12:41:19;7.22;;;6.07;;
39434;SDS011;30098;51.880;-0.518;2022-12-18T12:44:08;7.18;;;6.18;;
39434;SDS011;30098;51.880;-0.518;2022-12-18T12:46:41;7.25;;;6.20;;
39434;SDS011;30098;51.880;-0.518;2022-12-18T12:49:18;8.38;;;6.13;;
39434;SDS011;30098;51.880;-0.518;2022-12-18T12:51:54;6.88;;;6.13;;
39434;SDS011;30098;51.880;-0.518;2022-12-18T12:54:32;7.32;;;5.90;;
39434;SDS011;30098;51.880;-0.518;2022-12-18T12:57:10;6.97;;;5.85;;
39434;SDS011;30098;51.880;-0.518;2022-12-18T13:02:38;7.25;;;6.28;;
39434;SDS011;30098;51.880;-0.518;2022-12-18T13:05:23;6.97;;;6.05;;
39434;SDS011;30098;51.880;-0.518;2022-12-18T13:08:05;7.47;;;6.20;;
39434;SDS011;30098;51.880;-0.518;2022-12-18T13:10:34;6.68;;;5.82;;
39434;SDS011;30098;51.880;-0.518;2022-12-18T13:13:05;8.35;;;6.55;;
39434;SDS011;30098;51.880;-0.518;2022-12-18T13:15:44;6.57;;;5.85;;
39434;SDS011;30098;51.880;-0.518;2022-12-18T13:18:13;7.40;;;6.03;;
39434;SDS011;30098;51.880;-0.518;2022-12-18T13:23:29;7.28;;;5.97;;
39434;SDS011;30098;51.880;-0.518;2022-12-18T13:31:10;7.43;;;6.35;;
39434;SDS011;30098;51.880;-0.518;2022-12-18T13:33:37;8.32;;;6.28;;
39434;SDS011;30098;51.880;-0.518;2022-12-18T13:39:11;7.70;;;6.28;;
39434;SDS011;30098;51.880;-0.518;2022-12-18T13:41:43;7.10;;;6.15;;
39434;SDS011;30098;51.880;-0.518;2022-12-18T13:44:52;6.20;;;5.57;;
39434;SDS011;30098;51.880;-0.518;2022-12-18T13:47:05;7.57;;;5.93;;
39434;SDS011;30098;51.880;-0.518;2022-12-18T13:49:53;7.15;;;6.03;;
39434;SDS011;30098;51.880;-0.518;2022-12-18T13:52:24;7.13;;;6.07;;
39434;SDS011;30098;51.880;-0.518;2022-12-18T13:54:56;7.75;;;5.97;;
39434;SDS011;30098;51.880;-0.518;2022-12-18T13:59:53;7.47;;;6.03;;
39434;SDS011;30098;51.880;-0.518;2022-12-18T14:02:22;7.20;;;5.70;;
39434;SDS011;30098;51.880;-0.518;2022-12-18T14:04:52;8.00;;;6.35;;
39434;SDS011;30098;51.880;-0.518;2022-12-18T14:07:19;6.95;;;5.78;;
39434;SDS011;30098;51.880;-0.518;2022-12-18T14:10:11;7.50;;;6.00;;
39434;SDS011;30098;51.880;-0.518;2022-12-18T14:12:37;8.27;;;6.07;;
39434;SDS011;30098;51.880;-0.518;2022-12-18T14:15:40;8.18;;;6.25;;
39434;SDS011;30098;51.880;-0.518;2022-12-18T14:20:40;8.90;;;5.72;;
39434;SDS011;30098;51.880;-0.518;2022-12-18T14:23:32;8.02;;;6.38;;
39434;SDS011;30098;51.880;-0.518;2022-12-18T14:26:00;7.07;;;5.60;;
39434;SDS011;30098;51.880;-0.518;2022-12-18T14:28:44;7.28;;;5.75;;
39434;SDS011;30098;51.880;-0.518;2022-12-18T14:31:20;7.20;;;6.00;;
39434;SDS011;30098;51.880;-0.518;2022-12-18T14:33:50;6.97;;;5.60;;
39434;SDS011;30098;51.880;-0.518;2022-12-18T14:36:17;7.32;;;5.70;;
39434;SDS011;30098;51.880;-0.518;2022-12-18T14:38:48;6.95;;;5.40;;
39434;SDS011;30098;51.880;-0.518;2022-12-18T14:41:24;7.47;;;5.97;;
39434;SDS011;30098;51.880;-0.518;2022-12-18T14:43:51;7.63;;;5.80;;
39434;SDS011;30098;51.880;-0.518;2022-12-18T14:48:50;6.88;;;5.60;;
39434;SDS011;30098;51.880;-0.518;2022-12-18T14:51:29;7.32;;;5.70;;
39434;SDS011;30098;51.880;-0.518;2022-12-18T14:54:05;6.72;;;5.63;;
39434;SDS011;30098;51.880;-0.518;2022-12-18T14:56:46;5.90;;;5.20;;
39434;SDS011;30098;51.880;-0.518;2022-12-18T14:59:32;6.70;;;5.75;;
39434;SDS011;30098;51.880;-0.518;2022-12-18T15:01:59;6.07;;;5.22;;
39434;SDS011;30098;51.880;-0.518;2022-12-18T15:04:31;6.15;;;5.28;;
39434;SDS011;30098;51.880;-0.518;2022-12-18T15:07:04;6.25;;;5.28;;
39434;SDS011;30098;51.880;-0.518;2022-12-18T15:09:42;6.50;;;5.50;;
39434;SDS011;30098;51.880;-0.518;2022-12-18T15:12:32;7.65;;;5.63;;
39434;SDS011;30098;51.880;-0.518;2022-12-18T15:14:59;6.72;;;5.22;;
39434;SDS011;30098;51.880;-0.518;2022-12-18T15:17:25;6.95;;;5.40;;
39434;SDS011;30098;51.880;-0.518;2022-12-18T15:19:53;5.72;;;4.80;;
39434;SDS011;30098;51.880;-0.518;2022-12-18T15:22:34;6.82;;;5.65;;
39434;SDS011;30098;51.880;-0.518;2022-12-18T15:25:00;6.60;;;4.72;;
39434;SDS011;30098;51.880;-0.518;2022-12-18T15:32:38;5.77;;;4.83;;
39434;SDS011;30098;51.880;-0.518;2022-12-18T15:37:36;5.00;;;4.38;;
39434;SDS011;30098;51.880;-0.518;2022-12-18T15:40:06;5.43;;;4.65;;
39434;SDS011;30098;51.880;-0.518;2022-12-18T15:42:32;5.22;;;4.55;;
39434;SDS011;30098;51.880;-0.518;2022-12-18T15:45:16;4.75;;;4.25;;
39434;SDS011;30098;51.880;-0.518;2022-12-18T15:47:41;4.63;;;4.10;;
39434;SDS011;30098;51.880;-0.518;2022-12-18T15:50:07;5.45;;;4.50;;
39434;SDS011;30098;51.880;-0.518;2022-12-18T15:52:35;5.15;;;4.28;;
39434;SDS011;30098;51.880;-0.518;2022-12-18T15:55:09;4.95;;;4.25;;
39434;SDS011;30098;51.880;-0.518;2022-12-18T15:57:58;4.20;;;3.63;;
39434;SDS011;30098;51.880;-0.518;2022-12-18T16:00:23;4.78;;;4.22;;
39434;SDS011;30098;51.880;-0.518;2022-12-18T16:02:49;4.70;;;4.20;;
39434;SDS011;30098;51.880;-0.518;2022-12-18T16:05:15;4.70;;;3.80;;
39434;SDS011;30098;51.880;-0.518;2022-12-18T16:07:42;4.60;;;4.00;;
39434;SDS011;30098;51.880;-0.518;2022-12-18T16:10:08;4.70;;;3.97;;
39434;SDS011;30098;51.880;-0.518;2022-12-18T16:12:34;3.90;;;3.50;;
39434;SDS011;30098;51.880;-0.518;2022-12-18T16:15:00;3.95;;;3.55;;
39434;SDS011;30098;51.880;-0.518;2022-12-18T16:17:26;4.53;;;3.83;;
39434;SDS011;30098;51.880;-0.518;2022-12-18T16:19:52;4.47;;;3.60;;
39434;SDS011;30098;51.880;-0.518;2022-12-18T16:22:21;3.75;;;3.33;;
39434;SDS011;30098;51.880;-0.518;2022-12-18T16:24:49;4.13;;;3.58;;
39434;SDS011;30098;51.880;-0.518;2022-12-18T16:27:15;3.42;;;3.13;;
39434;SDS011;30098;51.880;-0.518;2022-12-18T16:29:40;3.58;;;3.10;;
39434;SDS011;30098;51.880;-0.518;2022-12-18T16:32:06;3.88;;;3.20;;